Time;durP1;ratioP1;P1;durP2;ratioP2;P2;SDS_P1;SDS_P2;PMS_P1;PMS_P2;Temp;Humidity;BMP_temperature;BMP_pressure;BME280_temperature;BME280_humidity;BME280_pressure;Samples;Min_cycle;Max_cycle;Signal;HPM_P1;HPM_P2
2024/04/16 00:00:25;;;;;;;3.13;1.70;;;6.50;99.90;;;;;;5272748;27;20232;-60
2024/04/16 00:02:51;;;;;;;4.40;2.00;;;6.60;99.90;;;;;;5272292;27;20927;-60
2024/04/16 00:05:16;;;;;;;5.57;2.87;;;6.50;99.90;;;;;;5272491;27;20229;-60
2024/04/16 00:07:42;;;;;;;5.20;2.00;;;6.50;99.90;;;;;;5272572;27;20657;-61
2024/04/16 00:10:08;;;;;;;3.80;2.53;;;6.60;99.90;;;;;;5272265;27;20229;-59
2024/04/16 00:12:33;;;;;;;2.07;1.73;;;6.60;99.90;;;;;;5272524;27;20311;-59
2024/04/16 00:14:59;;;;;;;3.83;1.93;;;6.60;99.90;;;;;;5272480;27;20244;-60
2024/04/16 00:17:27;;;;;;;6.03;2.67;;;6.60;99.90;;;;;;5272044;27;20278;-59
2024/04/16 00:19:56;;;;;;;3.70;2.27;;;6.60;99.90;;;;;;5272103;27;20288;-59
2024/04/16 00:22:21;;;;;;;5.03;2.97;;;6.60;99.90;;;;;;5272647;27;20471;-58
2024/04/16 00:24:47;;;;;;;4.50;1.90;;;6.60;99.90;;;;;;5272364;27;20516;-58
2024/04/16 00:27:13;;;;;;;2.27;2.07;;;6.60;99.90;;;;;;5272491;27;20541;-58
2024/04/16 00:29:38;;;;;;;4.40;2.00;;;6.60;99.90;;;;;;5272175;27;20279;-59
2024/04/16 00:32:04;;;;;;;2.43;2.23;;;6.70;99.90;;;;;;5271830;27;20232;-60
2024/04/16 00:34:30;;;;;;;3.27;2.70;;;6.60;99.90;;;;;;5272157;27;20268;-60
2024/04/16 00:36:55;;;;;;;3.73;2.57;;;6.60;99.90;;;;;;5270375;27;21012;-59
2024/04/16 00:39:21;;;;;;;4.40;2.70;;;6.60;99.90;;;;;;5272290;27;20241;-57
2024/04/16 00:41:50;;;;;;;2.83;2.60;;;6.60;99.90;;;;;;5272224;27;20271;-57
2024/04/16 00:44:15;;;;;;;5.23;2.60;;;6.70;99.90;;;;;;5273483;27;20325;-60
2024/04/16 00:46:41;;;;;;;4.13;2.57;;;6.70;99.90;;;;;;5275479;27;20468;-60
2024/04/16 00:49:07;;;;;;;5.67;3.30;;;6.70;99.90;;;;;;5275086;27;20443;-60
2024/04/16 00:51:34;;;;;;;4.37;3.47;;;6.70;99.90;;;;;;5275359;27;20279;-62
2024/04/16 00:53:59;;;;;;;6.33;3.30;;;6.70;99.90;;;;;;5275107;27;20465;-58
2024/04/16 00:56:25;;;;;;;2.93;2.73;;;6.70;99.90;;;;;;5275552;27;21011;-60
2024/04/16 00:58:51;;;;;;;3.63;3.27;;;6.70;99.90;;;;;;5274724;27;20232;-60
2024/04/16 01:01:16;;;;;;;6.40;3.20;;;6.70;99.90;;;;;;5275213;27;20541;-59
2024/04/16 01:03:43;;;;;;;11.93;3.50;;;6.70;99.90;;;;;;5275158;27;20229;-60
2024/04/16 01:06:10;;;;;;;5.50;3.13;;;6.70;99.90;;;;;;5274919;27;20301;-58
2024/04/16 01:08:35;;;;;;;7.27;2.87;;;6.70;99.90;;;;;;5274952;27;20468;-60
2024/04/16 01:11:01;;;;;;;3.57;2.87;;;6.70;99.90;;;;;;5274893;27;21240;-60
2024/04/16 01:13:26;;;;;;;6.00;3.07;;;6.70;99.90;;;;;;5275406;27;20229;-57
2024/04/16 01:15:52;;;;;;;6.07;2.80;;;6.80;99.90;;;;;;5274528;27;20341;-60
2024/04/16 01:18:17;;;;;;;4.30;3.40;;;6.80;99.90;;;;;;5274650;27;20245;-57
2024/04/16 01:20:43;;;;;;;5.80;3.87;;;6.80;99.90;;;;;;5274916;27;20267;-60
2024/04/16 01:23:09;;;;;;;4.33;3.50;;;6.80;99.90;;;;;;5274558;27;20283;-60
2024/04/16 01:25:35;;;;;;;3.83;3.43;;;6.70;99.90;;;;;;5275076;27;20355;-60
2024/04/16 01:28:01;;;;;;;7.57;4.10;;;6.70;99.90;;;;;;5274512;27;20232;-60
2024/04/16 01:30:27;;;;;;;5.50;3.20;;;6.70;99.90;;;;;;5274595;27;20980;-60
2024/04/16 01:32:53;;;;;;;6.43;3.47;;;6.70;99.90;;;;;;5274359;27;20520;-60
2024/04/16 01:35:18;;;;;;;7.33;3.93;;;6.70;99.90;;;;;;5274778;27;20228;-60
2024/04/16 01:37:44;;;;;;;5.00;3.90;;;6.70;99.90;;;;;;5275110;27;20672;-60
2024/04/16 01:40:11;;;;;;;6.50;3.80;;;6.70;99.90;;;;;;5274472;27;20249;-60
2024/04/16 01:42:37;;;;;;;7.93;3.67;;;6.70;99.90;;;;;;5274561;27;20723;-57
2024/04/16 01:45:02;;;;;;;6.67;3.80;;;6.60;99.90;;;;;;5272143;27;20544;-59
2024/04/16 01:47:28;;;;;;;7.30;3.87;;;6.60;99.90;;;;;;5274402;27;20236;-60
2024/04/16 01:49:53;;;;;;;4.60;4.20;;;6.70;99.90;;;;;;5274293;27;20280;-60
2024/04/16 01:52:19;;;;;;;6.33;4.90;;;6.70;99.90;;;;;;5274498;27;20634;-60
2024/04/16 01:54:45;;;;;;;9.50;3.57;;;6.70;99.90;;;;;;5274381;27;20396;-60
2024/04/16 01:57:10;;;;;;;5.03;3.40;;;6.60;99.90;;;;;;5273418;27;20244;-60
2024/04/16 01:59:36;;;;;;;4.17;3.77;;;6.60;99.90;;;;;;5274334;27;20818;-60
2024/04/16 02:02:01;;;;;;;3.77;3.00;;;6.60;99.90;;;;;;5274184;27;20224;-60
2024/04/16 02:04:28;;;;;;;6.77;4.50;;;6.60;99.90;;;;;;5274792;27;20224;-59
2024/04/16 02:06:54;;;;;;;5.93;4.37;;;6.50;99.90;;;;;;5274303;27;20233;-59
2024/04/16 02:09:19;;;;;;;4.20;3.50;;;6.50;99.90;;;;;;5274307;27;20590;-59
2024/04/16 02:11:45;;;;;;;6.90;3.77;;;6.50;99.90;;;;;;5274612;27;20252;-58
2024/04/16 02:14:10;;;;;;;5.87;3.80;;;6.50;99.90;;;;;;5274247;27;20229;-60
2024/04/16 02:16:36;;;;;;;4.80;3.07;;;6.50;99.90;;;;;;5274451;27;20240;-59
2024/04/16 02:19:02;;;;;;;5.93;3.90;;;6.50;99.90;;;;;;5274025;27;20280;-60
2024/04/16 02:21:27;;;;;;;4.83;3.50;;;6.50;99.90;;;;;;5274419;27;20275;-60
2024/04/16 02:23:53;;;;;;;4.07;3.60;;;6.40;99.90;;;;;;5273712;27;20627;-57
2024/04/16 02:26:18;;;;;;;7.13;4.90;;;6.50;99.90;;;;;;5274223;27;20766;-60
2024/04/16 02:28:44;;;;;;;5.13;4.20;;;6.40;99.90;;;;;;5273744;27;20327;-60
2024/04/16 02:31:09;;;;;;;4.80;3.50;;;6.40;99.90;;;;;;5274057;27;20224;-60
2024/04/16 02:33:35;;;;;;;4.63;3.53;;;6.40;99.90;;;;;;5274156;27;20225;-60
2024/04/16 02:36:02;;;;;;;10.63;4.80;;;6.40;99.90;;;;;;5273817;27;20697;-61
2024/04/16 02:38:28;;;;;;;3.80;3.40;;;6.40;99.90;;;;;;5274061;27;20241;-60
2024/04/16 02:40:53;;;;;;;4.80;4.40;;;6.30;99.90;;;;;;5273787;27;20536;-61
2024/04/16 02:43:19;;;;;;;6.60;4.33;;;6.30;99.90;;;;;;5274039;27;20516;-57
2024/04/16 02:45:45;;;;;;;4.23;3.70;;;6.30;99.90;;;;;;5273964;27;20785;-61
2024/04/16 02:48:10;;;;;;;3.83;3.13;;;6.20;99.90;;;;;;5273260;27;20244;-61
2024/04/16 02:50:36;;;;;;;6.67;4.10;;;6.20;99.90;;;;;;5273769;27;20221;-61
2024/04/16 02:53:01;;;;;;;5.30;4.90;;;6.10;99.90;;;;;;5273645;27;20229;-60
2024/04/16 02:55:27;;;;;;;4.30;3.70;;;6.10;99.90;;;;;;5273632;27;20324;-57
2024/04/16 02:57:53;;;;;;;7.47;3.87;;;6.10;99.90;;;;;;5273736;27;20233;-58
2024/04/16 03:00:18;;;;;;;5.33;3.90;;;6.00;99.90;;;;;;5273333;27;20229;-59
2024/04/16 03:02:44;;;;;;;5.13;3.70;;;6.00;99.90;;;;;;5273744;27;20267;-58
2024/04/16 03:05:09;;;;;;;6.37;4.20;;;6.00;99.90;;;;;;5273231;27;20638;-59
2024/04/16 03:07:36;;;;;;;4.10;3.03;;;6.00;99.90;;;;;;5272344;27;20264;-60
2024/04/16 03:10:01;;;;;;;6.77;3.90;;;6.00;99.90;;;;;;5273641;27;20232;-60
2024/04/16 03:12:27;;;;;;;3.80;3.33;;;6.00;99.90;;;;;;5273506;27;20556;-60
2024/04/16 03:14:53;;;;;;;3.40;3.10;;;6.00;99.90;;;;;;5273337;27;20263;-60
2024/04/16 03:17:19;;;;;;;5.10;3.70;;;5.90;99.90;;;;;;5273211;27;20270;-60
2024/04/16 03:19:45;;;;;;;3.43;3.13;;;5.90;99.90;;;;;;5273113;27;20224;-60
2024/04/16 03:22:10;;;;;;;7.93;5.17;;;6.00;99.90;;;;;;5272846;27;20508;-60
2024/04/16 03:24:36;;;;;;;7.73;3.63;;;5.90;99.90;;;;;;5273323;27;20277;-59
2024/04/16 03:27:02;;;;;;;4.13;3.30;;;6.00;99.90;;;;;;5272798;27;20229;-57
2024/04/16 03:29:27;;;;;;;3.47;3.17;;;6.00;99.90;;;;;;5273362;27;20244;-60
2024/04/16 03:31:53;;;;;;;4.97;3.40;;;6.00;99.90;;;;;;5273335;27;20684;-59
2024/04/16 03:34:18;;;;;;;4.90;3.37;;;6.00;99.90;;;;;;5272767;27;20263;-59
2024/04/16 03:36:44;;;;;;;5.70;2.70;;;6.00;99.90;;;;;;5273407;27;20225;-59
2024/04/16 03:39:09;;;;;;;5.83;3.43;;;6.00;99.90;;;;;;5273337;27;20225;-59
2024/04/16 03:41:35;;;;;;;4.70;2.90;;;6.00;99.90;;;;;;5273525;27;20224;-59
2024/04/16 03:44:01;;;;;;;3.00;2.70;;;6.00;99.90;;;;;;5272822;27;20225;-59
2024/04/16 03:46:26;;;;;;;5.53;3.30;;;6.00;99.90;;;;;;5273283;27;20578;-59
2024/04/16 03:48:52;;;;;;;6.53;3.10;;;6.00;99.90;;;;;;5273037;27;20266;-59
2024/04/16 03:51:18;;;;;;;3.17;2.77;;;6.00;99.90;;;;;;5272823;27;20516;-60
2024/04/16 03:53:43;;;;;;;4.53;2.73;;;6.00;99.90;;;;;;5273022;27;20273;-60
2024/04/16 03:56:09;;;;;;;4.70;2.80;;;6.00;99.90;;;;;;5272842;27;20292;-59
2024/04/16 03:58:43;;;;;;;3.03;2.73;;;6.00;99.90;;;;;;5273330;27;20264;-61
2024/04/16 04:01:09;;;;;;;3.80;2.53;;;6.00;99.90;;;;;;5272680;27;20279;-60
2024/04/16 04:03:35;;;;;;;3.50;2.90;;;6.00;99.90;;;;;;5272794;27;20451;-60
2024/04/16 04:06:01;;;;;;;4.03;2.13;;;6.00;99.90;;;;;;5272626;27;20236;-60
2024/04/16 04:08:27;;;;;;;2.83;2.60;;;6.00;99.90;;;;;;5272609;27;20228;-61
2024/04/16 04:10:53;;;;;;;3.47;3.17;;;6.00;99.90;;;;;;5272588;27;20455;-60
2024/04/16 04:13:19;;;;;;;3.50;2.70;;;6.00;99.90;;;;;;5272301;27;20240;-56
2024/04/16 04:15:45;;;;;;;3.60;3.30;;;6.00;99.90;;;;;;5272584;27;20554;-59
2024/04/16 04:18:10;;;;;;;5.07;2.37;;;6.00;99.90;;;;;;5270344;27;20276;-60
2024/04/16 04:20:39;;;;;;;5.57;2.70;;;6.00;99.90;;;;;;5279699;27;20266;-60
2024/04/16 04:23:05;;;;;;;2.70;2.20;;;6.00;99.90;;;;;;5279394;27;20262;-61
2024/04/16 04:25:31;;;;;;;4.30;2.77;;;6.00;99.90;;;;;;5279859;27;20460;-58
2024/04/16 04:27:56;;;;;;;2.57;2.37;;;6.00;99.90;;;;;;5279713;27;21282;-61
2024/04/16 04:30:22;;;;;;;3.87;2.40;;;6.00;99.90;;;;;;5279182;27;20300;-60
2024/04/16 04:32:49;;;;;;;3.50;2.63;;;6.00;99.90;;;;;;5279553;27;20310;-61
2024/04/16 04:35:14;;;;;;;3.53;2.47;;;6.00;99.90;;;;;;5279390;27;20232;-59
2024/04/16 04:37:40;;;;;;;3.77;2.77;;;6.00;99.90;;;;;;5279215;27;20531;-61
2024/04/16 04:40:06;;;;;;;7.03;2.57;;;6.00;99.90;;;;;;5278869;27;20552;-57
2024/04/16 04:42:31;;;;;;;2.97;2.53;;;6.00;99.90;;;;;;5279371;27;20598;-57
2024/04/16 04:44:57;;;;;;;3.17;2.10;;;6.00;99.90;;;;;;5279184;27;20576;-60
2024/04/16 04:47:23;;;;;;;3.50;3.23;;;6.10;99.90;;;;;;5278694;27;20232;-60
2024/04/16 04:49:48;;;;;;;4.20;2.90;;;6.10;99.90;;;;;;5279070;27;20704;-60
2024/04/16 04:52:14;;;;;;;4.40;3.03;;;6.10;99.90;;;;;;5279055;27;20274;-60
2024/04/16 04:54:39;;;;;;;3.77;2.83;;;6.20;99.90;;;;;;5279147;27;20345;-61
2024/04/16 04:57:05;;;;;;;3.07;2.77;;;6.20;99.90;;;;;;5278822;27;20291;-61
2024/04/16 04:59:31;;;;;;;2.90;2.67;;;6.20;99.90;;;;;;5279205;27;20224;-61
2024/04/16 05:01:58;;;;;;;2.70;2.50;;;6.30;99.90;;;;;;5278929;27;20275;-61
2024/04/16 05:04:23;;;;;;;2.33;2.13;;;6.30;99.90;;;;;;5279045;27;20275;-61
2024/04/16 05:06:49;;;;;;;3.63;2.83;;;6.40;99.90;;;;;;5279159;27;20471;-60
2024/04/16 05:09:14;;;;;;;4.87;2.93;;;6.40;99.90;;;;;;5278138;27;20260;-60
2024/04/16 05:11:40;;;;;;;3.33;3.03;;;6.40;99.90;;;;;;5278945;27;20311;-57
2024/04/16 05:14:07;;;;;;;2.87;2.53;;;6.50;99.90;;;;;;5278425;27;20431;-59
2024/04/16 05:16:33;;;;;;;5.93;3.43;;;6.40;99.90;;;;;;5279104;27;20334;-59
2024/04/16 05:18:59;;;;;;;3.03;2.83;;;6.30;99.90;;;;;;5278311;27;20475;-59
2024/04/16 05:21:24;;;;;;;7.73;3.40;;;6.20;99.90;;;;;;5278379;27;20853;-57
2024/04/16 05:23:50;;;;;;;3.83;3.07;;;6.10;99.90;;;;;;5278618;27;20252;-60
2024/04/16 05:26:16;;;;;;;6.00;3.40;;;6.20;99.90;;;;;;5278511;27;20279;-60
2024/04/16 05:28:42;;;;;;;6.07;4.77;;;6.10;99.90;;;;;;5278621;27;20910;-60
2024/04/16 05:31:08;;;;;;;6.03;4.33;;;6.20;99.90;;;;;;5274622;27;20479;-59
2024/04/16 05:33:33;;;;;;;5.67;4.60;;;6.40;99.90;;;;;;5274631;27;20241;-60
2024/04/16 05:35:59;;;;;;;5.73;4.37;;;6.40;99.90;;;;;;5274851;27;20280;-60
2024/04/16 05:38:25;;;;;;;10.60;4.00;;;6.30;99.90;;;;;;5274253;27;20283;-58
2024/04/16 05:40:50;;;;;;;9.83;4.97;;;6.50;99.90;;;;;;5274935;27;20298;-60
2024/04/16 05:43:16;;;;;;;9.90;4.93;;;6.60;99.90;;;;;;5273791;27;20237;-60
2024/04/16 05:45:41;;;;;;;9.33;4.50;;;6.70;99.90;;;;;;5274462;27;20229;-61
2024/04/16 05:48:07;;;;;;;4.47;3.00;;;6.70;99.90;;;;;;5274203;27;20571;-61
2024/04/16 05:50:33;;;;;;;4.83;4.37;;;6.60;99.90;;;;;;5274633;27;20729;-59
2024/04/16 05:52:59;;;;;;;4.73;3.83;;;7.00;99.90;;;;;;5273939;27;20346;-59
2024/04/16 05:55:24;;;;;;;3.40;3.10;;;7.00;99.90;;;;;;5274021;27;20838;-60
2024/04/16 05:57:50;;;;;;;6.60;3.27;;;7.20;99.90;;;;;;5272341;27;20238;-61
2024/04/16 06:00:15;;;;;;;3.93;2.80;;;7.40;99.90;;;;;;5274205;27;20372;-61
2024/04/16 06:02:41;;;;;;;7.07;4.50;;;7.50;99.90;;;;;;5274857;27;20233;-57
2024/04/16 06:05:07;;;;;;;4.00;3.00;;;7.40;99.90;;;;;;5274168;27;20231;-60
2024/04/16 06:07:32;;;;;;;5.27;2.73;;;7.40;99.90;;;;;;5273914;27;20299;-61
2024/04/16 06:09:58;;;;;;;3.30;2.37;;;7.30;99.90;;;;;;5273859;27;20764;-59
2024/04/16 06:12:24;;;;;;;2.80;2.40;;;6.90;99.90;;;;;;5273734;27;20380;-59
2024/04/16 06:14:49;;;;;;;2.93;2.37;;;6.90;99.90;;;;;;5274159;27;20287;-64
2024/04/16 06:17:15;;;;;;;2.97;2.60;;;6.90;99.90;;;;;;5288978;21;20222;-69
2024/04/16 06:19:43;;;;;;;3.80;2.57;;;6.80;99.90;;;;;;5276776;27;20573;-65
2024/04/16 06:22:09;;;;;;;4.00;3.10;;;6.80;99.90;;;;;;5276224;27;20368;-63
2024/04/16 06:24:35;;;;;;;3.20;2.90;;;6.90;99.90;;;;;;5276800;27;20456;-63
2024/04/16 06:27:01;;;;;;;4.53;2.63;;;6.90;99.90;;;;;;5276245;27;20844;-63
2024/04/16 06:29:27;;;;;;;6.03;3.77;;;7.00;99.90;;;;;;5265624;27;20593;-63
2024/04/16 06:31:52;;;;;;;3.47;3.17;;;6.90;99.90;;;;;;5276976;27;20469;-63
2024/04/16 06:34:18;;;;;;;4.83;3.60;;;6.80;99.90;;;;;;5269381;27;20234;-63
2024/04/16 06:36:44;;;;;;;3.27;3.07;;;6.80;99.90;;;;;;5259507;27;20331;-62
2024/04/16 06:39:09;;;;;;;5.50;3.53;;;6.80;99.90;;;;;;5269925;27;20225;-63
2024/04/16 06:41:35;;;;;;;5.70;3.33;;;6.60;99.90;;;;;;5276506;27;20335;-63
2024/04/16 06:44:00;;;;;;;3.07;2.77;;;6.60;99.90;;;;;;5265262;27;20225;-63
2024/04/16 06:46:26;;;;;;;3.67;3.37;;;6.70;99.90;;;;;;5255849;27;20230;-63
2024/04/16 06:48:51;;;;;;;4.10;3.67;;;6.70;99.90;;;;;;5276200;27;20780;-63
2024/04/16 06:51:17;;;;;;;7.90;3.90;;;6.60;99.90;;;;;;5267098;27;20233;-63
2024/04/16 06:53:42;;;;;;;3.80;2.80;;;6.70;99.90;;;;;;5276551;27;20244;-62
2024/04/16 06:56:08;;;;;;;3.17;2.90;;;6.80;99.90;;;;;;5276389;27;20266;-62
2024/04/16 06:58:34;;;;;;;3.53;2.50;;;6.70;99.90;;;;;;5276424;27;20296;-63
2024/04/16 07:01:00;;;;;;;5.77;3.20;;;6.90;99.90;;;;;;5276823;27;20229;-62
2024/04/16 07:03:27;;;;;;;4.23;3.67;;;7.00;99.90;;;;;;5276126;27;20532;-62
2024/04/16 07:05:53;;;;;;;3.80;3.50;;;6.90;99.90;;;;;;5276802;27;20508;-63
2024/04/16 07:08:18;;;;;;;4.17;3.77;;;6.90;99.90;;;;;;5267470;27;20991;-62
2024/04/16 07:10:47;;;;;;;4.40;4.00;;;6.90;99.90;;;;;;5276387;27;20237;-63
2024/04/16 07:13:15;;;;;;;4.80;4.40;;;6.90;99.90;;;;;;5275981;27;20276;-63
2024/04/16 07:15:41;;;;;;;9.67;6.53;;;6.90;99.90;;;;;;5276185;27;20472;-63
2024/04/16 07:18:07;;;;;;;4.50;4.10;;;6.80;99.90;;;;;;5275912;27;20581;-63
2024/04/16 07:20:32;;;;;;;5.27;4.77;;;7.00;99.90;;;;;;5275960;27;20256;-63
2024/04/16 07:22:58;;;;;;;5.60;5.00;;;7.10;99.90;;;;;;5276258;27;20907;-63
2024/04/16 07:25:24;;;;;;;8.00;5.80;;;7.10;99.90;;;;;;5275775;27;20229;-63
2024/04/16 07:27:49;;;;;;;5.30;4.90;;;7.10;99.90;;;;;;5275948;27;20256;-64
2024/04/16 07:30:16;;;;;;;8.73;5.13;;;7.20;99.90;;;;;;5275299;27;20708;-63
2024/04/16 07:32:41;;;;;;;6.90;4.33;;;7.20;99.90;;;;;;5276017;27;20273;-62
2024/04/16 07:35:07;;;;;;;6.53;4.60;;;7.40;99.90;;;;;;5275536;27;20457;-61
2024/04/16 07:37:33;;;;;;;8.43;4.70;;;7.60;99.90;;;;;;5275477;27;20287;-62
2024/04/16 07:39:58;;;;;;;8.60;4.70;;;7.20;99.90;;;;;;5275546;27;20238;-63
2024/04/16 07:42:24;;;;;;;8.03;4.40;;;6.90;99.90;;;;;;5275297;27;20281;-62
2024/04/16 07:44:49;;;;;;;8.00;4.10;;;7.00;99.90;;;;;;5276029;27;20224;-63
2024/04/16 07:47:15;;;;;;;4.80;4.30;;;7.10;99.90;;;;;;5275172;27;20327;-62
2024/04/16 07:49:41;;;;;;;6.37;4.67;;;7.20;99.90;;;;;;5275310;27;20272;-63
2024/04/16 07:52:06;;;;;;;12.67;4.73;;;7.30;99.90;;;;;;5275544;27;20227;-63
2024/04/16 07:54:32;;;;;;;7.43;4.63;;;7.50;99.90;;;;;;5274099;27;20352;-63
2024/04/16 07:56:59;;;;;;;5.97;5.43;;;7.20;99.90;;;;;;5275145;27;20235;-62
2024/04/16 07:59:24;;;;;;;6.50;4.37;;;7.20;99.90;;;;;;5271754;27;20232;-64
2024/04/16 08:01:50;;;;;;;5.53;4.73;;;7.20;99.90;;;;;;5272400;27;20448;-63
2024/04/16 08:04:16;;;;;;;6.27;4.43;;;7.30;99.90;;;;;;5275377;27;20652;-63
2024/04/16 08:06:41;;;;;;;3.80;3.20;;;7.30;99.90;;;;;;5275472;27;20374;-62
2024/04/16 08:09:07;;;;;;;4.33;3.93;;;7.50;99.90;;;;;;5275418;27;20239;-62
2024/04/16 08:11:32;;;;;;;5.93;5.20;;;7.40;99.90;;;;;;5275486;27;20344;-63
2024/04/16 08:13:58;;;;;;;10.23;4.70;;;7.60;99.90;;;;;;5276080;27;20229;-63
2024/04/16 08:16:25;;;;;;;5.60;4.70;;;7.50;99.90;;;;;;5275908;27;20283;-61
2024/04/16 08:18:50;;;;;;;6.53;4.80;;;7.50;99.90;;;;;;5274989;27;20625;-63
2024/04/16 08:21:16;;;;;;;10.70;4.80;;;7.30;99.90;;;;;;5275127;27;20454;-62
2024/04/16 08:23:42;;;;;;;3.80;3.50;;;7.30;99.90;;;;;;5275205;27;20277;-61
2024/04/16 08:26:07;;;;;;;6.47;4.90;;;7.60;99.90;;;;;;5275180;27;20523;-63
2024/04/16 08:28:33;;;;;;;5.10;4.63;;;7.40;99.90;;;;;;5261202;27;20890;-63
2024/04/16 08:31:00;;;;;;;4.00;3.70;;;7.30;99.90;;;;;;5275175;27;20637;-63
2024/04/16 08:33:26;;;;;;;5.97;4.27;;;7.10;99.90;;;;;;5274983;27;20733;-63
2024/04/16 08:35:52;;;;;;;4.73;4.33;;;6.90;99.90;;;;;;5275168;27;20603;-62
2024/04/16 08:38:19;;;;;;;5.27;4.87;;;6.90;99.90;;;;;;5274714;27;20266;-61
2024/04/16 08:40:45;;;;;;;6.93;4.40;;;6.90;99.90;;;;;;5275010;27;20464;-63
2024/04/16 08:43:11;;;;;;;7.70;4.20;;;6.80;99.90;;;;;;5267103;27;20517;-62
2024/04/16 08:45:37;;;;;;;4.80;3.93;;;6.90;99.90;;;;;;5274701;27;20585;-63
2024/04/16 08:48:05;;;;;;;7.67;4.73;;;7.00;99.90;;;;;;5274785;27;20464;-63
2024/04/16 08:50:33;;;;;;;6.27;4.43;;;6.90;99.90;;;;;;5274332;27;20521;-63
2024/04/16 08:53:00;;;;;;;12.07;4.70;;;7.00;99.90;;;;;;5275101;27;20543;-63
2024/04/16 08:55:26;;;;;;;6.57;5.20;;;7.10;99.90;;;;;;5275403;27;21127;-63
2024/04/16 08:57:53;;;;;;;6.10;5.47;;;7.00;99.90;;;;;;5275911;27;20597;-64
2024/04/16 09:00:20;;;;;;;6.63;5.43;;;7.20;99.90;;;;;;5275489;27;20510;-63
2024/04/16 09:02:46;;;;;;;7.10;5.77;;;7.30;99.90;;;;;;5274840;27;20477;-62
2024/04/16 09:05:12;;;;;;;14.63;6.20;;;7.30;99.90;;;;;;5274632;27;20462;-63
2024/04/16 09:07:39;;;;;;;9.20;5.33;;;7.50;99.90;;;;;;5277629;27;20535;-63
2024/04/16 09:10:18;;;;;;;6.13;4.70;;;7.40;99.90;;;;;;5277782;27;20456;-63
2024/04/16 09:12:43;;;;;;;7.60;5.57;;;7.80;99.90;;;;;;5278319;27;21043;-63
2024/04/16 09:15:11;;;;;;;5.60;4.73;;;7.90;99.90;;;;;;5278042;27;20466;-63
2024/04/16 09:17:45;;;;;;;8.83;5.20;;;8.50;99.90;;;;;;5277627;27;20278;-61
2024/04/16 09:20:14;;;;;;;7.70;4.00;;;9.30;99.90;;;;;;5277511;27;20460;-63
2024/04/16 09:22:40;;;;;;;7.20;4.40;;;9.50;99.90;;;;;;5277604;27;20464;-64
2024/04/16 09:25:09;;;;;;;9.40;4.00;;;9.30;99.90;;;;;;5277710;27;20872;-64
2024/04/16 09:27:34;;;;;;;9.10;4.00;;;9.30;99.90;;;;;;5277286;27;20703;-64
2024/04/16 09:30:10;;;;;;;7.20;3.43;;;9.70;99.90;;;;;;5277621;27;20455;-63
2024/04/16 09:32:37;;;;;;;4.03;3.63;;;9.50;99.90;;;;;;5277167;27;20232;-64
2024/04/16 09:35:03;;;;;;;5.23;3.70;;;9.70;99.90;;;;;;5277584;27;20467;-64
2024/04/16 09:37:29;;;;;;;7.00;3.33;;;9.60;99.90;;;;;;5277531;27;20542;-64
2024/04/16 09:39:58;;;;;;;9.23;3.83;;;9.70;99.90;;;;;;5277726;27;20519;-64
2024/04/16 09:42:26;;;;;;;4.53;3.63;;;9.40;99.90;;;;;;5285893;27;20228;-63
2024/04/16 09:44:52;;;;;;;6.93;4.23;;;9.20;99.90;;;;;;5277138;27;20764;-63
2024/04/16 09:47:18;;;;;;;7.90;4.47;;;9.10;99.90;;;;;;5277197;27;20511;-62
2024/04/16 09:49:44;;;;;;;6.53;3.73;;;9.20;99.90;;;;;;5277359;27;20463;-63
2024/04/16 09:52:14;;;;;;;5.60;3.70;;;9.30;99.90;;;;;;5277538;27;20523;-63
2024/04/16 09:54:44;;;;;;;7.23;3.47;;;9.20;99.90;;;;;;5277211;27;20587;-63
2024/04/16 09:57:10;;;;;;;3.57;3.03;;;9.30;99.90;;;;;;5260104;27;20591;-63
2024/04/16 09:59:40;;;;;;;4.70;3.47;;;9.30;99.90;;;;;;5276808;27;20576;-63
2024/04/16 10:02:09;;;;;;;6.97;3.20;;;9.80;99.90;;;;;;5277237;27;20523;-63
2024/04/16 10:04:36;;;;;;;9.27;3.70;;;10.00;99.90;;;;;;5276836;27;20528;-64
2024/04/16 10:07:03;;;;;;;6.50;3.60;;;10.00;99.90;;;;;;5277032;27;20456;-64
2024/04/16 10:09:32;;;;;;;11.40;4.13;;;10.10;99.90;;;;;;5276800;27;20836;-64
2024/04/16 10:11:59;;;;;;;8.23;4.83;;;10.30;99.90;;;;;;5277472;27;20460;-64
2024/04/16 10:14:25;;;;;;;8.03;3.07;;;10.90;99.90;;;;;;5276573;27;20542;-62
2024/04/16 10:16:52;;;;;;;5.27;2.30;;;10.80;99.90;;;;;;5276337;27;20475;-63
2024/04/16 10:19:18;;;;;;;5.93;2.30;;;10.50;99.90;;;;;;5276594;27;20614;-63
2024/04/16 10:21:49;;;;;;;5.47;2.63;;;10.70;99.90;;;;;;5271224;27;20475;-63
2024/04/16 10:24:19;;;;;;;4.40;1.73;;;10.70;99.90;;;;;;5276785;27;20244;-63
2024/04/16 10:26:47;;;;;;;6.37;2.47;;;10.40;99.90;;;;;;5276682;27;20535;-63
2024/04/16 10:29:15;;;;;;;3.90;2.60;;;10.20;99.90;;;;;;5276853;27;20532;-63
2024/04/16 10:31:43;;;;;;;4.73;1.70;;;10.40;99.90;;;;;;5276496;27;20455;-63
2024/04/16 10:34:18;;;;;;;2.93;1.80;;;10.30;99.90;;;;;;5276395;27;20564;-64
2024/04/16 10:36:44;;;;;;;6.70;2.40;;;10.30;99.90;;;;;;5276296;27;20452;-63
2024/04/16 10:39:11;;;;;;;5.27;2.50;;;10.30;99.90;;;;;;5276818;27;21113;-64
2024/04/16 10:41:36;;;;;;;4.67;2.00;;;10.30;99.90;;;;;;5275970;27;20276;-63
2024/04/16 10:44:03;;;;;;;4.20;2.97;;;10.10;99.90;;;;;;5282608;27;20468;-64
2024/04/16 10:46:29;;;;;;;7.23;4.00;;;9.90;99.90;;;;;;5263291;27;20732;-63
2024/04/16 10:48:56;;;;;;;6.87;3.00;;;10.60;99.90;;;;;;5276735;27;20527;-61
2024/04/16 10:51:21;;;;;;;5.67;2.80;;;11.10;99.90;;;;;;5276716;27;20987;-63
2024/04/16 10:53:47;;;;;;;8.00;4.10;;;11.00;99.90;;;;;;5276684;27;20472;-63
2024/04/16 10:56:13;;;;;;;6.20;2.83;;;11.10;99.90;;;;;;5277088;27;20244;-62
2024/04/16 10:58:39;;;;;;;6.17;2.90;;;11.10;99.90;;;;;;5275955;27;20244;-61
2024/04/16 11:01:05;;;;;;;8.10;2.77;;;11.00;99.90;;;;;;5276343;27;20690;-63
2024/04/16 11:03:34;;;;;;;5.40;2.43;;;10.80;99.90;;;;;;5276567;27;20719;-62
2024/04/16 11:06:00;;;;;;;7.43;2.53;;;10.90;99.90;;;;;;5276701;27;20464;-64
2024/04/16 11:08:29;;;;;;;6.90;2.50;;;11.00;99.90;;;;;;5275852;27;20452;-63
2024/04/16 11:10:54;;;;;;;1.80;1.70;;;11.20;99.90;;;;;;5263675;27;20743;-63
2024/04/16 11:13:21;;;;;;;3.37;1.93;;;11.00;99.90;;;;;;5270327;27;20512;-63
2024/04/16 11:15:46;;;;;;;4.83;1.83;;;10.90;99.90;;;;;;5273963;27;20348;-66
2024/04/16 11:18:12;;;;;;;3.07;1.90;;;10.70;99.90;;;;;;5268126;27;20468;-64
2024/04/16 11:20:39;;;;;;;3.97;2.00;;;10.00;99.90;;;;;;5275973;27;20451;-64
2024/04/16 11:23:06;;;;;;;2.73;2.40;;;8.90;99.90;;;;;;5276044;27;20562;-63
2024/04/16 11:25:33;;;;;;;2.70;2.40;;;8.80;99.90;;;;;;5275921;27;20452;-63
2024/04/16 11:27:58;;;;;;;4.40;2.00;;;9.20;99.90;;;;;;5266901;27;20524;-64
2024/04/16 11:30:25;;;;;;;4.83;2.50;;;9.20;99.90;;;;;;5275581;27;20795;-64
2024/04/16 11:32:51;;;;;;;2.60;2.40;;;9.60;99.90;;;;;;5276413;27;21071;-64
2024/04/16 11:35:17;;;;;;;2.30;2.10;;;9.70;99.90;;;;;;5276596;27;20564;-64
2024/04/16 11:37:46;;;;;;;3.90;1.73;;;9.80;99.90;;;;;;5275421;27;20468;-64
2024/04/16 11:40:12;;;;;;;4.10;2.13;;;10.30;99.90;;;;;;5275965;27;20358;-63
2024/04/16 11:42:38;;;;;;;3.63;2.00;;;11.10;99.90;;;;;;5286090;27;20463;-63
2024/04/16 11:45:05;;;;;;;2.30;2.00;;;10.90;99.90;;;;;;5276192;27;20878;-63
2024/04/16 11:47:31;;;;;;;4.03;2.10;;;10.90;99.90;;;;;;5275947;27;20994;-63
2024/04/16 11:50:01;;;;;;;5.77;2.10;;;11.00;99.90;;;;;;5276139;27;20509;-62
2024/04/16 11:52:27;;;;;;;2.90;1.80;;;11.10;99.90;;;;;;5269956;27;20233;-63
2024/04/16 11:54:53;;;;;;;2.13;1.60;;;11.70;99.90;;;;;;5275712;27;20871;-63
2024/04/16 11:57:18;;;;;;;5.53;2.10;;;11.70;99.90;;;;;;5271950;27;20473;-63
2024/04/16 11:59:44;;;;;;;2.50;2.13;;;11.40;99.90;;;;;;5269215;27;20287;-63
2024/04/16 12:02:12;;;;;;;2.47;1.60;;;11.50;99.90;;;;;;5275178;27;20228;-63
2024/04/16 12:04:38;;;;;;;2.97;1.40;;;11.40;99.90;;;;;;5260433;27;20559;-63
2024/04/16 12:07:04;;;;;;;4.20;2.10;;;11.40;99.90;;;;;;5268687;27;20587;-62
2024/04/16 12:09:31;;;;;;;2.07;1.87;;;11.60;99.90;;;;;;5273451;27;20225;-63
2024/04/16 12:11:57;;;;;;;5.73;1.60;;;11.70;99.90;;;;;;5275371;27;20241;-62
2024/04/16 12:14:22;;;;;;;5.07;2.07;;;12.30;99.90;;;;;;5275266;27;20463;-62
2024/04/16 12:16:48;;;;;;;2.80;1.57;;;12.20;99.90;;;;;;5274843;27;20582;-61
2024/04/16 12:19:14;;;;;;;3.30;1.67;;;11.90;99.90;;;;;;5262215;27;20740;-63
2024/04/16 12:21:40;;;;;;;2.73;1.60;;;11.90;99.90;;;;;;5257132;27;20275;-63
2024/04/16 12:24:06;;;;;;;3.63;2.57;;;11.90;99.90;;;;;;5274671;27;20267;-63
2024/04/16 12:26:31;;;;;;;4.33;1.80;;;12.10;99.90;;;;;;5274582;27;20460;-63
2024/04/16 12:28:58;;;;;;;3.43;1.90;;;11.70;99.90;;;;;;5269493;27;20472;-63
2024/04/16 12:31:24;;;;;;;2.53;2.10;;;11.50;99.90;;;;;;5274572;27;20275;-63
2024/04/16 12:33:50;;;;;;;4.10;1.60;;;11.30;99.90;;;;;;5274635;27;20617;-63
2024/04/16 12:36:16;;;;;;;2.50;1.37;;;11.40;99.90;;;;;;5274750;27;20456;-63
2024/04/16 12:38:43;;;;;;;4.30;1.50;;;10.90;99.90;;;;;;5274637;27;20495;-63
2024/04/16 12:41:08;;;;;;;2.60;1.50;;;9.60;99.90;;;;;;5277679;27;20829;-62
2024/04/16 12:43:34;;;;;;;1.93;1.43;;;9.20;99.90;;;;;;5289055;27;20716;-62
2024/04/16 12:46:01;;;;;;;3.20;1.80;;;9.00;99.90;;;;;;5278230;27;20279;-62
2024/04/16 12:48:26;;;;;;;2.77;1.80;;;8.80;99.90;;;;;;5278023;27;20280;-62